Time;durP1;ratioP1;P1;durP2;ratioP2;P2;SDS_P1;SDS_P2;PMS_P1;PMS_P2;Temp;Humidity;BMP_temperature;BMP_pressure;BME280_temperature;BME280_humidity;BME280_pressure;Samples;Min_cycle;Max_cycle;Signal;HPM_P1;HPM_P2
2023/11/07 00:00:11;;;;;;;2.20;2.10;;;9.00;99.90;;;;;;5103021;28;20697;-76
2023/11/07 00:02:38;;;;;;;2.25;2.15;;;9.00;99.90;;;;;;5103560;28;20217;-78
2023/11/07 00:05:08;;;;;;;2.38;2.25;;;9.00;99.90;;;;;;5101253;28;20227;-76
2023/11/07 00:07:36;;;;;;;2.25;2.15;;;9.00;99.90;;;;;;5102432;27;20216;-76
2023/11/07 00:10:03;;;;;;;2.35;2.25;;;9.00;99.90;;;;;;5103701;28;20293;-76
2023/11/07 00:12:31;;;;;;;2.50;2.40;;;9.00;99.90;;;;;;5102241;28;20220;-77
2023/11/07 00:14:58;;;;;;;2.60;2.42;;;9.00;99.90;;;;;;5100898;28;20269;-76
2023/11/07 00:17:25;;;;;;;2.75;2.60;;;9.00;99.90;;;;;;5099260;28;20203;-75
2023/11/07 00:19:52;;;;;;;3.17;2.97;;;8.90;99.90;;;;;;5099391;28;20610;-75
2023/11/07 00:22:19;;;;;;;2.90;2.45;;;8.90;99.90;;;;;;5101881;28;20217;-75
2023/11/07 00:24:47;;;;;;;2.58;2.38;;;8.90;99.90;;;;;;5101464;28;20205;-77
2023/11/07 00:27:14;;;;;;;2.45;2.35;;;8.80;99.90;;;;;;5098386;28;20221;-76
2023/11/07 00:29:42;;;;;;;2.60;2.40;;;8.80;99.90;;;;;;5099094;28;20892;-76
2023/11/07 00:32:09;;;;;;;2.70;2.50;;;8.70;99.90;;;;;;5099399;28;20193;-75
2023/11/07 00:34:36;;;;;;;2.90;2.70;;;8.70;99.90;;;;;;5100729;28;20201;-76
2023/11/07 00:37:04;;;;;;;2.40;2.25;;;8.70;99.90;;;;;;5099512;28;20193;-76
2023/11/07 00:39:31;;;;;;;2.50;2.30;;;8.60;99.90;;;;;;5099967;28;20200;-77
2023/11/07 00:41:58;;;;;;;2.80;2.40;;;8.60;99.90;;;;;;5098635;28;20284;-75
2023/11/07 00:44:25;;;;;;;2.60;2.50;;;8.60;99.90;;;;;;5099839;28;20209;-76
2023/11/07 00:46:53;;;;;;;3.13;2.17;;;8.60;99.90;;;;;;5098827;28;20743;-76
2023/11/07 00:49:20;;;;;;;2.50;2.30;;;8.60;99.90;;;;;;5100108;28;20675;-77
2023/11/07 00:51:47;;;;;;;2.22;2.13;;;8.60;99.90;;;;;;5098835;28;20209;-76
2023/11/07 00:54:14;;;;;;;2.63;2.42;;;8.60;99.90;;;;;;5102553;28;20344;-76
2023/11/07 00:56:42;;;;;;;3.05;2.33;;;8.50;99.90;;;;;;5099462;28;20274;-77
2023/11/07 00:59:09;;;;;;;2.60;2.40;;;8.50;99.90;;;;;;5101352;28;20291;-76
2023/11/07 01:01:36;;;;;;;2.15;2.05;;;8.40;99.90;;;;;;5099636;28;20253;-75
2023/11/07 01:04:05;;;;;;;2.20;2.10;;;8.40;99.90;;;;;;5100008;28;20255;-76
2023/11/07 01:06:32;;;;;;;2.33;2.13;;;8.40;99.90;;;;;;5097438;28;20197;-75
2023/11/07 01:08:59;;;;;;;2.30;2.20;;;8.50;99.90;;;;;;5097735;28;20254;-76
2023/11/07 01:11:26;;;;;;;2.25;2.15;;;8.50;99.90;;;;;;5099184;28;20201;-77
2023/11/07 01:13:53;;;;;;;2.45;2.25;;;8.50;99.90;;;;;;5100972;28;20266;-76
2023/11/07 01:16:20;;;;;;;2.95;2.75;;;8.50;99.90;;;;;;5100917;28;20553;-75
2023/11/07 01:18:47;;;;;;;2.72;2.53;;;8.50;99.90;;;;;;5100558;28;20200;-76
2023/11/07 01:21:16;;;;;;;2.67;2.47;;;8.50;99.90;;;;;;5097549;28;20672;-76
2023/11/07 01:23:43;;;;;;;2.47;2.33;;;8.50;99.90;;;;;;5100336;28;20239;-76
2023/11/07 01:26:11;;;;;;;2.47;2.28;;;8.50;99.90;;;;;;5099108;28;20208;-76
2023/11/07 01:28:38;;;;;;;2.10;2.00;;;8.50;99.90;;;;;;5098174;28;20207;-76
2023/11/07 01:31:06;;;;;;;2.35;2.25;;;8.50;99.90;;;;;;5098035;28;20205;-76
2023/11/07 01:33:33;;;;;;;2.40;2.30;;;8.50;99.90;;;;;;5098571;28;20330;-76
2023/11/07 01:36:00;;;;;;;2.65;2.45;;;8.50;99.90;;;;;;5098826;28;20262;-76
2023/11/07 01:38:28;;;;;;;2.38;2.28;;;8.50;99.90;;;;;;5097310;28;20201;-76
2023/11/07 01:40:55;;;;;;;2.53;2.15;;;8.50;99.90;;;;;;5097185;28;20197;-75
2023/11/07 01:43:23;;;;;;;2.20;2.10;;;8.60;99.90;;;;;;5099388;28;20221;-75
2023/11/07 01:45:50;;;;;;;2.70;2.50;;;8.60;99.90;;;;;;5098998;28;20918;-76
2023/11/07 01:48:25;;;;;;;2.65;2.47;;;8.60;99.90;;;;;;5097925;28;20212;-77
2023/11/07 01:50:53;;;;;;;2.15;2.05;;;8.60;99.90;;;;;;5100306;28;20986;-76
2023/11/07 01:53:20;;;;;;;2.30;2.20;;;8.60;99.90;;;;;;5097440;28;20236;-75
2023/11/07 01:55:49;;;;;;;2.40;2.20;;;8.60;99.90;;;;;;5100587;28;20204;-77
2023/11/07 01:58:17;;;;;;;2.75;2.55;;;8.50;99.90;;;;;;5098814;28;20219;-76
2023/11/07 02:00:44;;;;;;;2.60;2.40;;;8.50;99.90;;;;;;5094629;28;20242;-75
2023/11/07 02:03:12;;;;;;;2.47;2.38;;;8.50;99.90;;;;;;5096540;28;20793;-76
2023/11/07 02:05:41;;;;;;;2.53;2.33;;;8.50;99.90;;;;;;5102000;28;20594;-74
2023/11/07 02:08:09;;;;;;;2.50;2.30;;;8.50;99.90;;;;;;5098429;28;20225;-76
2023/11/07 02:10:37;;;;;;;2.70;2.50;;;8.50;99.90;;;;;;5096721;28;21436;-76
2023/11/07 02:13:05;;;;;;;2.42;2.22;;;8.50;99.90;;;;;;5096400;28;20300;-75
2023/11/07 02:15:35;;;;;;;2.75;2.55;;;8.50;99.90;;;;;;5096546;28;20198;-77
2023/11/07 02:18:02;;;;;;;2.50;2.30;;;8.50;99.90;;;;;;5096901;28;20648;-77
2023/11/07 02:20:30;;;;;;;2.45;2.25;;;8.50;99.90;;;;;;5098263;28;20667;-76
2023/11/07 02:23:09;;;;;;;2.65;2.45;;;8.50;99.90;;;;;;5097346;28;20221;-76
2023/11/07 02:25:38;;;;;;;2.55;2.35;;;8.50;99.90;;;;;;5098114;28;21008;-76
2023/11/07 02:28:05;;;;;;;2.13;2.03;;;8.60;99.90;;;;;;5096781;28;20248;-76
2023/11/07 02:30:33;;;;;;;2.20;2.10;;;8.60;99.90;;;;;;5106162;28;20197;-76
2023/11/07 02:33:04;;;;;;;2.53;2.40;;;8.60;99.90;;;;;;5102882;28;20221;-77
2023/11/07 02:35:31;;;;;;;2.40;2.20;;;8.60;99.90;;;;;;5105023;28;20203;-76
2023/11/07 02:37:58;;;;;;;2.28;2.17;;;8.60;99.90;;;;;;5100252;28;20208;-76
2023/11/07 02:40:25;;;;;;;2.80;2.60;;;8.60;99.90;;;;;;5096394;28;20729;-74
2023/11/07 02:42:54;;;;;;;2.63;2.50;;;8.60;99.90;;;;;;5097323;28;20225;-75
2023/11/07 02:45:21;;;;;;;2.53;2.35;;;8.60;99.90;;;;;;5094213;28;20251;-75
2023/11/07 02:47:48;;;;;;;2.35;2.15;;;8.60;99.90;;;;;;5097594;28;20285;-76
2023/11/07 02:50:15;;;;;;;2.33;2.22;;;8.60;99.90;;;;;;5097271;28;21217;-74
2023/11/07 02:52:42;;;;;;;2.38;2.28;;;8.60;99.90;;;;;;5097246;28;20278;-77
2023/11/07 02:55:09;;;;;;;2.67;2.50;;;8.50;99.90;;;;;;5094249;28;20201;-75
2023/11/07 02:57:36;;;;;;;2.72;2.08;;;8.50;99.90;;;;;;5097080;28;20273;-76
2023/11/07 03:00:08;;;;;;;2.47;2.30;;;8.50;99.90;;;;;;5099213;28;20212;-77
2023/11/07 03:02:35;;;;;;;3.65;3.13;;;8.50;99.90;;;;;;5096347;28;20726;-76
2023/11/07 03:05:04;;;;;;;2.67;2.47;;;8.50;99.90;;;;;;5097702;28;20292;-73
2023/11/07 03:07:31;;;;;;;2.47;2.25;;;8.50;99.90;;;;;;5096606;28;20308;-76
2023/11/07 03:09:58;;;;;;;2.45;2.35;;;8.50;99.90;;;;;;5099335;28;20206;-76
2023/11/07 03:12:25;;;;;;;2.60;2.42;;;8.40;99.90;;;;;;5099148;28;20248;-77
2023/11/07 03:14:52;;;;;;;2.63;2.42;;;8.40;99.90;;;;;;5101894;28;20197;-76
2023/11/07 03:17:21;;;;;;;2.33;2.20;;;8.30;99.90;;;;;;5100165;28;20260;-73
2023/11/07 03:19:51;;;;;;;2.67;2.47;;;8.30;99.90;;;;;;5099332;28;20204;-76
2023/11/07 03:22:19;;;;;;;2.53;2.33;;;8.20;99.90;;;;;;5100590;28;20198;-76
2023/11/07 03:24:46;;;;;;;2.70;2.50;;;8.20;99.90;;;;;;5102783;28;21913;-76
2023/11/07 03:27:13;;;;;;;3.00;2.80;;;8.20;99.90;;;;;;5098537;28;20198;-76
2023/11/07 03:29:42;;;;;;;3.17;2.97;;;8.20;99.90;;;;;;5101803;28;20279;-77
2023/11/07 03:32:09;;;;;;;2.53;2.33;;;8.20;99.90;;;;;;5096102;28;20208;-76
2023/11/07 03:34:37;;;;;;;2.80;2.60;;;8.30;99.90;;;;;;5102857;28;20254;-77
2023/11/07 03:37:04;;;;;;;2.60;2.50;;;8.30;99.90;;;;;;5099788;28;21132;-74
2023/11/07 03:39:32;;;;;;;2.60;2.40;;;8.30;99.90;;;;;;5101158;28;20265;-75
2023/11/07 03:41:59;;;;;;;2.90;2.22;;;8.30;99.90;;;;;;5096549;28;20209;-75
2023/11/07 03:44:26;;;;;;;3.00;2.38;;;8.30;99.90;;;;;;5100675;28;20620;-77
2023/11/07 03:46:54;;;;;;;3.50;3.22;;;8.20;99.90;;;;;;5098925;28;20209;-75
2023/11/07 03:49:21;;;;;;;3.20;3.00;;;8.00;99.90;;;;;;5098861;28;20209;-76
2023/11/07 03:51:49;;;;;;;3.08;2.88;;;7.80;99.90;;;;;;5101079;28;20736;-76
2023/11/07 03:54:17;;;;;;;3.08;2.88;;;7.70;99.90;;;;;;5099054;28;20668;-76
2023/11/07 03:56:47;;;;;;;3.40;3.15;;;7.70;99.90;;;;;;5098297;28;20232;-75
2023/11/07 03:59:14;;;;;;;3.17;2.97;;;7.80;99.90;;;;;;5096897;28;20194;-76
2023/11/07 04:01:41;;;;;;;3.03;2.83;;;7.80;99.90;;;;;;5096290;28;20205;-76
2023/11/07 04:04:08;;;;;;;3.15;2.95;;;7.90;99.90;;;;;;5097779;28;20277;-75
2023/11/07 04:06:35;;;;;;;3.28;2.97;;;7.90;99.90;;;;;;5099063;28;20250;-75
2023/11/07 04:09:04;;;;;;;2.78;2.58;;;7.90;99.90;;;;;;5095092;28;20306;-76
2023/11/07 04:11:32;;;;;;;3.30;3.10;;;7.80;99.90;;;;;;5095108;28;20225;-76
2023/11/07 04:14:00;;;;;;;3.35;2.97;;;7.80;99.90;;;;;;5108522;28;20225;-75
2023/11/07 04:16:27;;;;;;;2.80;2.60;;;7.70;99.90;;;;;;5106704;28;20242;-76
2023/11/07 04:18:54;;;;;;;3.20;2.97;;;7.80;99.90;;;;;;5098912;28;20251;-76
2023/11/07 04:21:22;;;;;;;3.70;2.72;;;7.80;99.90;;;;;;5100808;28;20193;-76
2023/11/07 04:23:49;;;;;;;2.90;2.70;;;7.90;99.90;;;;;;5102589;27;20232;-76
2023/11/07 04:26:17;;;;;;;3.00;2.80;;;7.90;99.90;;;;;;5100154;28;22049;-74
2023/11/07 04:28:44;;;;;;;3.20;2.90;;;7.80;99.90;;;;;;5097525;28;20224;-75
2023/11/07 04:31:12;;;;;;;3.40;3.10;;;7.80;99.90;;;;;;5102296;28;20338;-75
2023/11/07 04:33:39;;;;;;;2.92;2.72;;;7.80;99.90;;;;;;5098712;28;20310;-75
2023/11/07 04:36:07;;;;;;;2.80;2.60;;;7.80;99.90;;;;;;5093958;28;20244;-75
2023/11/07 04:38:34;;;;;;;2.90;2.70;;;7.90;99.90;;;;;;5096173;28;20208;-77
2023/11/07 04:41:02;;;;;;;4.82;3.50;;;7.90;99.90;;;;;;5097540;28;20288;-75
2023/11/07 04:43:35;;;;;;;3.17;2.97;;;7.90;99.90;;;;;;5098058;28;20247;-77
2023/11/07 04:46:02;;;;;;;3.75;3.45;;;7.80;99.90;;;;;;5098470;28;20203;-74
2023/11/07 04:48:31;;;;;;;3.38;3.08;;;7.80;99.90;;;;;;5096286;28;20243;-76
2023/11/07 04:50:59;;;;;;;2.95;2.70;;;7.80;99.90;;;;;;5097299;28;20287;-75
2023/11/07 04:53:26;;;;;;;2.90;2.70;;;7.80;99.90;;;;;;5096862;28;20391;-75
2023/11/07 04:55:53;;;;;;;2.80;2.60;;;7.90;99.90;;;;;;5098238;28;20200;-76
2023/11/07 04:58:21;;;;;;;2.85;2.65;;;7.90;99.90;;;;;;5098382;28;20197;-76
2023/11/07 05:00:50;;;;;;;2.92;2.72;;;7.90;99.90;;;;;;5095372;28;20288;-76
2023/11/07 05:03:17;;;;;;;3.20;3.00;;;7.90;99.90;;;;;;5099016;28;20758;-75
2023/11/07 05:05:44;;;;;;;2.78;2.58;;;7.80;99.90;;;;;;5099232;28;20319;-76
2023/11/07 05:08:11;;;;;;;3.45;3.15;;;7.80;99.90;;;;;;5099702;28;20809;-76
2023/11/07 05:10:38;;;;;;;5.32;4.88;;;7.80;99.90;;;;;;5096183;28;20568;-77
2023/11/07 05:13:06;;;;;;;4.25;3.95;;;7.80;99.90;;;;;;5095687;28;20274;-75
2023/11/07 05:15:33;;;;;;;3.65;3.40;;;7.80;99.90;;;;;;5100240;28;20246;-75
2023/11/07 05:18:01;;;;;;;3.50;3.20;;;7.80;99.90;;;;;;5092895;28;20279;-75
2023/11/07 05:20:28;;;;;;;3.10;2.90;;;7.70;99.90;;;;;;5096467;28;20266;-78
2023/11/07 05:22:56;;;;;;;3.20;3.00;;;7.70;99.90;;;;;;5095727;28;20674;-76
2023/11/07 05:25:23;;;;;;;3.92;3.63;;;7.60;99.90;;;;;;5096258;28;20317;-76
2023/11/07 05:27:50;;;;;;;3.20;3.00;;;7.60;99.90;;;;;;5098484;28;20250;-75
2023/11/07 05:30:17;;;;;;;3.47;3.17;;;7.60;99.90;;;;;;5094095;28;20755;-75
2023/11/07 05:32:47;;;;;;;4.03;3.65;;;7.60;99.90;;;;;;5095703;28;20265;-75
2023/11/07 05:35:16;;;;;;;3.13;2.92;;;7.60;99.90;;;;;;5092241;28;21144;-77
2023/11/07 05:37:43;;;;;;;3.30;3.00;;;7.70;99.90;;;;;;5097616;28;20220;-76
2023/11/07 05:40:13;;;;;;;2.80;2.60;;;7.80;99.90;;;;;;5099400;28;20668;-75
2023/11/07 05:42:41;;;;;;;3.00;2.80;;;7.80;99.90;;;;;;5100086;28;20224;-76
2023/11/07 05:45:08;;;;;;;2.95;2.75;;;7.80;99.90;;;;;;5097698;28;20201;-77
2023/11/07 05:47:37;;;;;;;3.38;3.17;;;7.90;99.90;;;;;;5095092;28;20194;-76
2023/11/07 05:50:05;;;;;;;3.42;3.15;;;7.90;99.90;;;;;;5095848;28;20213;-75
2023/11/07 05:52:34;;;;;;;3.47;2.83;;;7.90;99.90;;;;;;5094977;28;20249;-76
2023/11/07 05:55:02;;;;;;;3.30;3.00;;;7.90;99.90;;;;;;5096737;28;20204;-75
2023/11/07 05:57:29;;;;;;;3.42;2.97;;;7.80;99.90;;;;;;5096343;28;20548;-75
2023/11/07 05:59:58;;;;;;;4.10;3.80;;;7.80;99.90;;;;;;5096223;28;20193;-76
2023/11/07 06:02:25;;;;;;;5.10;4.18;;;7.80;99.90;;;;;;5094905;28;20266;-73
2023/11/07 06:04:55;;;;;;;4.10;3.80;;;7.70;99.90;;;;;;5097773;28;20205;-76
2023/11/07 06:07:23;;;;;;;3.90;3.50;;;7.70;99.90;;;;;;5098375;28;20287;-77
2023/11/07 06:09:51;;;;;;;5.25;4.28;;;7.60;99.90;;;;;;5100126;28;20241;-77
2023/11/07 06:12:18;;;;;;;4.32;3.92;;;7.60;99.90;;;;;;5095060;28;20193;-76
2023/11/07 06:14:45;;;;;;;3.90;3.60;;;7.60;99.90;;;;;;5096779;28;20266;-77
2023/11/07 06:17:12;;;;;;;4.10;3.80;;;7.60;99.90;;;;;;5096804;28;20208;-77
2023/11/07 06:19:39;;;;;;;5.38;4.88;;;7.60;99.90;;;;;;5094216;28;20207;-76
2023/11/07 06:22:07;;;;;;;4.80;4.40;;;7.60;99.90;;;;;;5098146;28;20200;-75
2023/11/07 06:24:34;;;;;;;4.57;4.18;;;7.50;99.90;;;;;;5098440;28;20739;-75
2023/11/07 06:27:03;;;;;;;4.28;3.88;;;7.50;99.90;;;;;;5096624;28;20193;-77
2023/11/07 06:29:30;;;;;;;4.18;3.88;;;7.50;99.90;;;;;;5096457;28;20204;-76
2023/11/07 06:31:57;;;;;;;4.30;3.90;;;7.60;99.90;;;;;;5098865;28;20193;-75
2023/11/07 06:34:24;;;;;;;3.92;3.53;;;7.60;99.90;;;;;;5099518;28;20225;-77
2023/11/07 06:36:52;;;;;;;3.92;3.63;;;7.70;99.90;;;;;;5095417;28;20270;-75
2023/11/07 06:39:23;;;;;;;3.33;3.13;;;7.70;99.90;;;;;;5102938;28;20197;-75
2023/11/07 06:41:51;;;;;;;4.28;3.88;;;7.70;99.90;;;;;;5099865;28;20596;-76
2023/11/07 06:44:19;;;;;;;4.05;3.63;;;7.70;99.90;;;;;;5097772;28;20307;-76
2023/11/07 06:46:49;;;;;;;3.30;3.10;;;7.70;99.90;;;;;;5095574;27;20679;-80
2023/11/07 06:49:16;;;;;;;3.90;3.60;;;7.70;99.90;;;;;;5098815;28;20212;-75
2023/11/07 06:51:44;;;;;;;3.85;3.55;;;7.80;99.90;;;;;;5099084;28;20202;-77
2023/11/07 06:54:11;;;;;;;4.13;3.30;;;7.80;99.90;;;;;;5103416;28;20216;-77
2023/11/07 06:56:38;;;;;;;3.33;3.13;;;7.70;99.90;;;;;;5094695;28;20672;-77
2023/11/07 06:59:05;;;;;;;3.50;3.20;;;7.70;99.90;;;;;;5103620;28;20197;-76
2023/11/07 07:01:33;;;;;;;3.17;2.97;;;7.70;99.90;;;;;;5100907;27;20200;-76
2023/11/07 07:04:01;;;;;;;3.28;3.08;;;7.80;99.90;;;;;;5097151;28;20232;-76
2023/11/07 07:06:28;;;;;;;3.30;3.10;;;7.80;99.90;;;;;;5104922;28;20201;-75
2023/11/07 07:08:55;;;;;;;3.70;3.47;;;7.90;99.90;;;;;;5102625;27;20332;-75
2023/11/07 07:11:22;;;;;;;4.03;3.72;;;7.90;99.90;;;;;;5099695;27;20222;-76
2023/11/07 07:13:49;;;;;;;3.75;3.42;;;7.90;99.90;;;;;;5094515;28;20912;-76
2023/11/07 07:16:18;;;;;;;3.63;3.33;;;7.80;99.90;;;;;;5097073;28;20197;-76
2023/11/07 07:18:48;;;;;;;3.42;3.22;;;7.80;99.90;;;;;;5100205;28;20227;-78
2023/11/07 07:21:16;;;;;;;3.40;3.20;;;7.80;99.90;;;;;;5103445;28;20193;-76
2023/11/07 07:23:46;;;;;;;3.20;3.00;;;7.80;99.90;;;;;;5096572;28;20217;-77
2023/11/07 07:26:14;;;;;;;3.20;3.00;;;7.80;99.90;;;;;;5098640;28;20201;-75
2023/11/07 07:28:41;;;;;;;3.10;2.90;;;7.80;99.90;;;;;;5095473;28;20197;-75
2023/11/07 07:31:08;;;;;;;3.40;3.10;;;7.90;99.90;;;;;;5101888;28;20614;-75
2023/11/07 07:33:35;;;;;;;3.30;3.08;;;7.90;99.90;;;;;;5099719;28;20271;-78
2023/11/07 07:36:06;;;;;;;3.53;3.30;;;8.00;99.90;;;;;;5097788;28;20209;-78
2023/11/07 07:38:35;;;;;;;3.53;3.22;;;8.00;99.90;;;;;;5097276;28;20286;-76
2023/11/07 07:41:02;;;;;;;3.00;2.80;;;8.10;99.90;;;;;;5096455;28;20197;-76
2023/11/07 07:43:33;;;;;;;2.67;2.47;;;8.10;99.90;;;;;;5098460;28;20347;-76
2023/11/07 07:46:00;;;;;;;3.30;3.00;;;8.20;99.90;;;;;;5096223;28;20707;-75
2023/11/07 07:48:27;;;;;;;3.50;3.25;;;8.30;99.90;;;;;;5095807;28;20196;-75
2023/11/07 07:50:54;;;;;;;4.95;4.03;;;8.40;99.90;;;;;;5097853;28;20287;-75
2023/11/07 07:53:22;;;;;;;48.65;5.60;;;8.50;99.90;;;;;;5103014;28;20217;-77
2023/11/07 07:55:50;;;;;;;4.10;3.80;;;8.40;99.90;;;;;;5102188;28;20261;-76
2023/11/07 07:58:18;;;;;;;4.00;3.70;;;8.40;99.90;;;;;;5102797;28;20189;-77
2023/11/07 08:00:49;;;;;;;4.20;3.80;;;8.40;99.90;;;;;;5100967;28;21465;-78
2023/11/07 08:03:17;;;;;;;4.57;4.18;;;8.40;99.90;;;;;;5100952;28;21293;-75
2023/11/07 08:05:44;;;;;;;3.90;3.60;;;8.50;99.90;;;;;;5098947;28;20250;-79
2023/11/07 08:08:11;;;;;;;4.10;3.80;;;8.60;99.90;;;;;;5102815;28;20248;-77
2023/11/07 08:10:40;;;;;;;6.93;4.35;;;8.60;99.90;;;;;;5103328;28;20582;-75
2023/11/07 08:13:09;;;;;;;5.05;4.57;;;8.60;99.90;;;;;;5103107;28;20646;-77
2023/11/07 08:15:37;;;;;;;5.18;4.68;;;8.60;99.90;;;;;;5102993;28;20236;-76
2023/11/07 08:18:06;;;;;;;6.20;4.90;;;8.60;99.90;;;;;;5102263;28;20196;-76
2023/11/07 08:20:33;;;;;;;4.88;4.47;;;8.60;99.90;;;;;;5102866;28;20193;-76
2023/11/07 08:23:01;;;;;;;5.10;4.70;;;8.70;99.90;;;;;;5101265;28;20238;-77
2023/11/07 08:25:29;;;;;;;5.90;5.38;;;8.70;99.90;;;;;;5098533;28;20274;-75
2023/11/07 08:27:57;;;;;;;4.97;4.57;;;8.60;99.90;;;;;;5099558;27;20193;-78
2023/11/07 08:30:25;;;;;;;4.55;4.18;;;8.50;99.90;;;;;;5098600;28;20213;-76
2023/11/07 08:32:53;;;;;;;6.85;4.10;;;8.50;99.90;;;;;;5096407;28;20274;-77
2023/11/07 08:35:20;;;;;;;4.57;4.18;;;8.50;99.90;;;;;;5099748;28;20202;-74
2023/11/07 08:37:49;;;;;;;3.95;3.65;;;8.40;99.90;;;;;;5098186;28;20284;-78
2023/11/07 08:40:19;;;;;;;4.40;4.10;;;8.50;99.90;;;;;;5098695;28;20220;-78
2023/11/07 08:42:48;;;;;;;5.07;4.68;;;8.50;99.90;;;;;;5097791;28;20285;-76
2023/11/07 08:45:18;;;;;;;4.32;4.03;;;8.50;99.90;;;;;;5098255;28;20198;-75
2023/11/07 08:47:46;;;;;;;4.00;3.70;;;8.50;99.90;;;;;;5101317;28;20209;-76
2023/11/07 08:50:14;;;;;;;4.07;3.78;;;8.50;99.90;;;;;;5097833;28;20213;-76
2023/11/07 08:52:41;;;;;;;3.80;3.50;;;8.60;99.90;;;;;;5100196;28;20220;-75
2023/11/07 08:55:10;;;;;;;4.13;3.83;;;8.60;99.90;;;;;;5098799;28;20197;-75
2023/11/07 08:57:38;;;;;;;4.20;3.90;;;8.60;99.90;;;;;;5097623;28;20197;-76
2023/11/07 09:00:12;;;;;;;4.70;4.07;;;8.80;99.90;;;;;;5097778;28;20220;-76
2023/11/07 09:02:41;;;;;;;4.75;4.25;;;9.10;99.90;;;;;;5098547;28;20220;-75
2023/11/07 09:05:09;;;;;;;4.63;4.22;;;9.10;99.90;;;;;;5095324;28;20207;-77
2023/11/07 09:07:37;;;;;;;4.20;3.90;;;9.30;99.90;;;;;;5093866;28;20257;-76
2023/11/07 09:10:05;;;;;;;4.75;4.35;;;9.50;99.90;;;;;;5097747;28;20225;-75
2023/11/07 09:12:32;;;;;;;4.47;4.18;;;9.60;99.90;;;;;;5100252;28;20248;-75
2023/11/07 09:15:00;;;;;;;5.47;4.97;;;9.80;99.90;;;;;;5096633;28;20198;-76
2023/11/07 09:17:27;;;;;;;5.85;5.35;;;9.70;99.90;;;;;;5098724;28;20229;-76
2023/11/07 09:19:55;;;;;;;4.68;4.30;;;9.70;99.90;;;;;;5098092;28;20255;-78
2023/11/07 09:22:22;;;;;;;4.90;4.40;;;9.80;99.90;;;;;;5097848;28;20710;-75
2023/11/07 09:24:50;;;;;;;4.30;3.92;;;9.80;99.90;;;;;;5095156;27;20297;-76
2023/11/07 09:27:17;;;;;;;4.50;4.10;;;10.20;99.90;;;;;;5094090;28;20253;-76
2023/11/07 09:29:45;;;;;;;4.30;3.92;;;10.60;99.90;;;;;;5095093;28;20217;-76
2023/11/07 09:32:13;;;;;;;4.18;3.88;;;11.10;99.90;;;;;;5094138;28;20200;-76
2023/11/07 09:34:40;;;;;;;4.35;3.95;;;11.60;99.90;;;;;;5094534;28;20201;-78
2023/11/07 09:37:09;;;;;;;4.50;4.10;;;12.60;99.90;;;;;;5096341;28;20235;-76
2023/11/07 09:39:36;;;;;;;4.32;3.60;;;12.90;99.90;;;;;;5099367;28;20204;-76
2023/11/07 09:42:07;;;;;;;3.95;3.65;;;13.20;99.90;;;;;;5096374;28;20204;-75
2023/11/07 09:44:35;;;;;;;3.55;3.25;;;13.80;99.90;;;;;;5101397;28;20200;-78
2023/11/07 09:47:05;;;;;;;4.15;3.75;;;13.50;99.90;;;;;;5097432;28;20236;-76
2023/11/07 09:49:33;;;;;;;3.40;3.10;;;13.10;99.90;;;;;;5099399;28;20248;-76
2023/11/07 09:52:00;;;;;;;3.72;3.42;;;12.80;99.90;;;;;;5099863;28;20657;-77
2023/11/07 09:54:32;;;;;;;3.40;3.10;;;12.40;99.90;;;;;;5103301;28;20271;-77
2023/11/07 09:57:03;;;;;;;3.38;3.10;;;12.00;99.90;;;;;;5101574;28;20215;-76
2023/11/07 09:59:36;;;;;;;3.40;3.10;;;11.60;99.90;;;;;;5102289;28;20205;-76
2023/11/07 10:02:03;;;;;;;4.05;3.75;;;11.30;99.90;;;;;;5097935;28;21045;-77
2023/11/07 10:04:32;;;;;;;3.78;3.42;;;11.00;99.90;;;;;;5097619;28;20387;-75
2023/11/07 10:06:59;;;;;;;3.70;3.40;;;10.90;99.90;;;;;;5097140;28;20228;-78
2023/11/07 10:09:29;;;;;;;3.55;3.25;;;10.80;99.90;;;;;;5099184;28;20812;-77
2023/11/07 10:11:58;;;;;;;3.60;3.30;;;10.70;99.90;;;;;;5102187;28;20218;-76
2023/11/07 10:14:26;;;;;;;3.67;3.38;;;10.70;99.90;;;;;;5107934;28;20223;-76
2023/11/07 10:16:56;;;;;;;3.20;3.00;;;10.80;99.90;;;;;;5102494;28;20295;-77
2023/11/07 10:22:17;;;;;;;4.15;3.50;;;11.20;99.90;;;;;;5108269;28;20207;-76
2023/11/07 10:24:54;;;;;;;3.10;2.80;;;11.70;99.90;;;;;;5112219;28;20211;-77
2023/11/07 10:27:29;;;;;;;3.65;3.35;;;11.70;99.90;;;;;;5107025;28;20233;-76
2023/11/07 10:29:56;;;;;;;3.95;3.65;;;11.60;99.90;;;;;;5113771;28;20212;-76
2023/11/07 10:32:23;;;;;;;3.88;3.55;;;11.40;99.90;;;;;;5111031;28;20246;-77
2023/11/07 10:35:01;;;;;;;3.70;3.40;;;11.30;99.90;;;;;;5110007;28;20306;-78
2023/11/07 10:37:35;;;;;;;3.42;3.22;;;11.10;99.90;;;;;;5111861;27;20751;-75
2023/11/07 10:40:04;;;;;;;3.80;3.50;;;11.00;99.90;;;;;;5107190;28;20288;-75
2023/11/07 10:42:33;;;;;;;3.35;3.08;;;10.80;99.90;;;;;;5103487;28;20213;-77
2023/11/07 10:45:05;;;;;;;4.70;3.15;;;10.60;99.90;;;;;;5112648;28;20197;-77
2023/11/07 10:47:35;;;;;;;4.43;3.15;;;10.40;99.90;;;;;;5107640;28;20902;-79
2023/11/07 10:50:03;;;;;;;3.50;3.25;;;10.20;99.90;;;;;;5098918;28;20221;-77
2023/11/07 10:52:30;;;;;;;3.65;3.22;;;10.10;99.90;;;;;;5097347;28;20989;-77
2023/11/07 10:54:58;;;;;;;3.92;3.58;;;10.00;99.90;;;;;;5103778;28;20667;-76
2023/11/07 10:57:31;;;;;;;4.20;3.80;;;9.80;99.90;;;;;;5103050;28;20315;-76
2023/11/07 11:00:05;;;;;;;4.47;4.07;;;9.80;99.90;;;;;;5103081;28;20672;-76
2023/11/07 11:02:33;;;;;;;4.70;4.40;;;9.70;99.90;;;;;;5099085;28;20243;-76
2023/11/07 11:05:02;;;;;;;4.75;4.22;;;9.60;99.90;;;;;;5098172;28;20742;-77
2023/11/07 11:07:30;;;;;;;4.20;3.83;;;9.60;99.90;;;;;;5096375;28;20197;-77
2023/11/07 11:10:01;;;;;;;4.53;4.07;;;9.60;99.90;;;;;;5098816;28;20216;-76
2023/11/07 11:12:29;;;;;;;4.30;4.00;;;9.50;99.90;;;;;;5095217;28;20218;-77
2023/11/07 11:14:56;;;;;;;3.75;3.45;;;9.50;99.90;;;;;;5095037;28;20286;-77
2023/11/07 11:17:31;;;;;;;4.10;3.70;;;9.40;99.90;;;;;;5096125;28;20937;-76
2023/11/07 11:20:05;;;;;;;4.05;3.72;;;9.40;99.90;;;;;;5091006;28;20204;-77
2023/11/07 11:22:36;;;;;;;3.83;3.53;;;9.40;99.90;;;;;;5094726;28;20822;-77
2023/11/07 11:25:17;;;;;;;4.00;3.70;;;9.40;99.90;;;;;;5094309;28;20473;-76
2023/11/07 11:27:52;;;;;;;3.97;3.67;;;9.30;99.90;;;;;;5090697;28;20204;-78
2023/11/07 11:30:27;;;;;;;4.18;3.78;;;9.30;99.90;;;;;;5096752;28;20624;-77
2023/11/07 11:33:06;;;;;;;4.13;3.83;;;9.30;99.90;;;;;;5101831;28;20254;-75
2023/11/07 11:35:35;;;;;;;4.22;3.92;;;9.30;99.90;;;;;;5100697;28;20715;-76
2023/11/07 11:38:20;;;;;;;4.18;3.88;;;9.40;99.90;;;;;;5098502;28;20205;-77
2023/11/07 11:40:49;;;;;;;4.28;3.88;;;9.40;99.90;;;;;;5102708;28;20235;-79
2023/11/07 11:43:18;;;;;;;5.32;4.93;;;9.30;99.90;;;;;;5101847;28;20252;-76
2023/11/07 11:45:45;;;;;;;4.40;4.00;;;9.20;99.90;;;;;;5106549;28;20614;-77
2023/11/07 11:48:12;;;;;;;4.22;3.92;;;9.10;99.90;;;;;;5103432;28;20215;-77
2023/11/07 11:50:39;;;;;;;4.28;3.97;;;9.20;99.90;;;;;;5106150;28;20220;-77
2023/11/07 11:53:09;;;;;;;4.25;3.95;;;9.20;99.90;;;;;;5106422;28;20284;-76
2023/11/07 11:56:11;;;;;;;3.60;3.30;;;9.10;99.90;;;;;;5105714;28;20197;-77
2023/11/07 11:58:40;;;;;;;3.83;3.53;;;9.20;99.90;;;;;;5098761;28;20314;-76
2023/11/07 12:01:10;;;;;;;3.40;3.10;;;9.20;99.90;;;;;;5102122;27;20200;-77
2023/11/07 12:03:42;;;;;;;3.67;3.38;;;9.30;99.90;;;;;;5096874;28;20248;-77
2023/11/07 12:06:10;;;;;;;3.60;3.30;;;9.30;99.90;;;;;;5097007;28;20200;-76
2023/11/07 12:08:39;;;;;;;3.63;3.30;;;9.30;99.90;;;;;;5100558;28;20209;-76
2023/11/07 12:11:07;;;;;;;3.67;3.40;;;9.40;99.90;;;;;;5100433;28;20805;-76
2023/11/07 12:13:35;;;;;;;3.63;3.33;;;9.30;99.90;;;;;;5096854;28;20318;-77
2023/11/07 12:16:14;;;;;;;3.45;3.17;;;9.30;99.90;;;;;;5094158;28;20278;-77
2023/11/07 12:18:42;;;;;;;3.50;3.30;;;9.40;99.90;;;;;;5096940;28;20238;-76
2023/11/07 12:21:10;;;;;;;4.18;3.88;;;9.40;99.90;;;;;;5097350;28;20194;-77
2023/11/07 12:23:37;;;;;;;4.22;3.83;;;9.30;99.90;;;;;;5095673;28;20944;-77
2023/11/07 12:26:07;;;;;;;8.07;5.93;;;9.30;99.90;;;;;;5097308;28;20205;-76
2023/11/07 12:28:43;;;;;;;6.90;5.65;;;9.30;99.90;;;;;;5095786;28;20350;-78
2023/11/07 12:31:10;;;;;;;5.45;4.90;;;9.40;99.90;;;;;;5093364;28;20247;-76
2023/11/07 12:33:42;;;;;;;4.03;3.72;;;9.40;99.90;;;;;;5091471;28;20241;-77
2023/11/07 12:36:13;;;;;;;4.25;3.92;;;9.40;99.90;;;;;;5097988;28;20197;-75
2023/11/07 12:38:41;;;;;;;3.97;3.38;;;9.40;99.90;;;;;;5092498;28;20197;-75
2023/11/07 12:41:10;;;;;;;3.88;3.58;;;9.50;99.90;;;;;;5091296;28;20227;-77
2023/11/07 12:43:40;;;;;;;3.05;2.83;;;9.50;99.90;;;;;;5094798;28;20639;-77
2023/11/07 12:46:10;;;;;;;3.95;2.78;;;9.50;99.90;;;;;;5094920;27;20208;-76
2023/11/07 12:48:38;;;;;;;3.17;2.80;;;9.40;99.90;;;;;;5091287;28;20951;-77
2023/11/07 12:51:08;;;;;;;2.67;2.47;;;9.30;99.90;;;;;;5097905;28;20312;-77
2023/11/07 12:53:46;;;;;;;3.20;2.60;;;9.30;99.90;;;;;;5096791;28;20255;-76
2023/11/07 12:56:13;;;;;;;3.42;3.13;;;9.30;99.90;;;;;;5095217;28;20280;-77
2023/11/07 12:58:40;;;;;;;3.15;2.95;;;9.30;99.90;;;;;;5097310;27;20254;-79
2023/11/07 13:01:07;;;;;;;3.35;3.05;;;9.30;99.90;;;;;;5093626;28;20583;-75
2023/11/07 13:03:37;;;;;;;3.10;2.90;;;9.30;99.90;;;;;;5094151;28;20225;-76